sensor_id;sensor_type;location;lat;lon;timestamp;P1;durP1;ratioP1;P2;durP2;ratioP2
80127;SDS011;69440;52.118;5.408;2023-10-19T00:00:34;9.57;;;6.30;;
80127;SDS011;69440;52.118;5.408;2023-10-19T00:03:02;10.32;;;6.88;;
80127;SDS011;69440;52.118;5.408;2023-10-19T00:05:29;9.90;;;6.20;;
80127;SDS011;69440;52.118;5.408;2023-10-19T00:07:58;9.30;;;6.30;;
80127;SDS011;69440;52.118;5.408;2023-10-19T00:10:26;8.38;;;6.13;;
80127;SDS011;69440;52.118;5.408;2023-10-19T00:13:01;10.05;;;6.50;;
80127;SDS011;69440;52.118;5.408;2023-10-19T00:15:33;9.55;;;7.07;;
80127;SDS011;69440;52.118;5.408;2023-10-19T00:18:03;9.75;;;7.13;;
80127;SDS011;69440;52.118;5.408;2023-10-19T00:20:42;9.48;;;6.68;;
80127;SDS011;69440;52.118;5.408;2023-10-19T00:23:13;11.38;;;7.07;;
80127;SDS011;69440;52.118;5.408;2023-10-19T00:25:44;10.88;;;6.95;;
80127;SDS011;69440;52.118;5.408;2023-10-19T00:28:17;11.88;;;6.57;;
80127;SDS011;69440;52.118;5.408;2023-10-19T00:30:44;10.85;;;7.57;;
80127;SDS011;69440;52.118;5.408;2023-10-19T00:33:15;10.63;;;8.05;;
80127;SDS011;69440;52.118;5.408;2023-10-19T00:35:44;10.43;;;7.50;;
80127;SDS011;69440;52.118;5.408;2023-10-19T00:38:13;12.15;;;7.78;;
80127;SDS011;69440;52.118;5.408;2023-10-19T00:40:58;14.13;;;8.93;;
80127;SDS011;69440;52.118;5.408;2023-10-19T00:43:27;10.07;;;7.40;;
80127;SDS011;69440;52.118;5.408;2023-10-19T00:46:05;11.85;;;7.60;;
80127;SDS011;69440;52.118;5.408;2023-10-19T00:48:53;13.70;;;7.47;;
80127;SDS011;69440;52.118;5.408;2023-10-19T00:51:21;10.88;;;7.60;;
80127;SDS011;69440;52.118;5.408;2023-10-19T00:53:54;12.68;;;7.78;;
80127;SDS011;69440;52.118;5.408;2023-10-19T00:56:21;10.32;;;7.03;;
80127;SDS011;69440;52.118;5.408;2023-10-19T00:58:50;11.25;;;7.93;;
80127;SDS011;69440;52.118;5.408;2023-10-19T01:01:21;10.02;;;7.07;;
80127;SDS011;69440;52.118;5.408;2023-10-19T01:03:55;11.40;;;7.68;;
80127;SDS011;69440;52.118;5.408;2023-10-19T01:06:25;11.93;;;7.50;;
80127;SDS011;69440;52.118;5.408;2023-10-19T01:08:52;12.02;;;8.13;;
80127;SDS011;69440;52.118;5.408;2023-10-19T01:11:19;12.15;;;8.05;;
80127;SDS011;69440;52.118;5.408;2023-10-19T01:13:47;10.05;;;7.72;;
80127;SDS011;69440;52.118;5.408;2023-10-19T01:16:18;12.35;;;7.93;;
80127;SDS011;69440;52.118;5.408;2023-10-19T01:18:48;11.65;;;8.13;;
80127;SDS011;69440;52.118;5.408;2023-10-19T01:21:24;11.30;;;7.75;;
80127;SDS011;69440;52.118;5.408;2023-10-19T01:24:09;11.95;;;8.20;;
80127;SDS011;69440;52.118;5.408;2023-10-19T01:26:38;12.55;;;8.13;;
80127;SDS011;69440;52.118;5.408;2023-10-19T01:29:05;13.38;;;8.52;;
80127;SDS011;69440;52.118;5.408;2023-10-19T01:31:43;12.02;;;7.32;;
80127;SDS011;69440;52.118;5.408;2023-10-19T01:34:33;12.40;;;8.43;;
80127;SDS011;69440;52.118;5.408;2023-10-19T01:37:00;12.07;;;8.10;;
80127;SDS011;69440;52.118;5.408;2023-10-19T01:42:01;12.70;;;8.52;;
80127;SDS011;69440;52.118;5.408;2023-10-19T01:44:31;12.63;;;7.63;;
80127;SDS011;69440;52.118;5.408;2023-10-19T01:46:57;10.93;;;7.57;;
80127;SDS011;69440;52.118;5.408;2023-10-19T01:49:27;11.85;;;8.65;;
80127;SDS011;69440;52.118;5.408;2023-10-19T01:51:56;12.23;;;7.82;;
80127;SDS011;69440;52.118;5.408;2023-10-19T01:54:23;17.60;;;9.48;;
80127;SDS011;69440;52.118;5.408;2023-10-19T01:56:52;13.45;;;9.10;;
80127;SDS011;69440;52.118;5.408;2023-10-19T01:59:24;15.10;;;8.95;;
80127;SDS011;69440;52.118;5.408;2023-10-19T02:01:54;12.32;;;8.15;;
80127;SDS011;69440;52.118;5.408;2023-10-19T02:04:21;12.68;;;9.30;;
80127;SDS011;69440;52.118;5.408;2023-10-19T02:06:48;13.35;;;8.15;;
80127;SDS011;69440;52.118;5.408;2023-10-19T02:09:17;12.90;;;8.45;;
80127;SDS011;69440;52.118;5.408;2023-10-19T02:11:49;11.90;;;8.40;;
80127;SDS011;69440;52.118;5.408;2023-10-19T02:14:19;11.80;;;8.57;;
80127;SDS011;69440;52.118;5.408;2023-10-19T02:16:47;11.35;;;7.40;;
80127;SDS011;69440;52.118;5.408;2023-10-19T02:19:20;12.80;;;8.05;;
80127;SDS011;69440;52.118;5.408;2023-10-19T02:21:51;12.07;;;8.63;;
80127;SDS011;69440;52.118;5.408;2023-10-19T02:24:19;11.80;;;8.57;;
80127;SDS011;69440;52.118;5.408;2023-10-19T02:26:49;12.73;;;7.78;;
80127;SDS011;69440;52.118;5.408;2023-10-19T02:29:18;12.95;;;7.95;;
80127;SDS011;69440;52.118;5.408;2023-10-19T02:31:44;9.95;;;7.30;;
80127;SDS011;69440;52.118;5.408;2023-10-19T02:34:12;12.63;;;7.53;;
80127;SDS011;69440;52.118;5.408;2023-10-19T02:36:42;12.38;;;7.10;;
80127;SDS011;69440;52.118;5.408;2023-10-19T02:39:10;12.13;;;7.75;;
80127;SDS011;69440;52.118;5.408;2023-10-19T02:41:44;12.43;;;7.45;;
80127;SDS011;69440;52.118;5.408;2023-10-19T02:44:12;11.10;;;7.32;;
80127;SDS011;69440;52.118;5.408;2023-10-19T02:46:49;13.52;;;7.68;;
80127;SDS011;69440;52.118;5.408;2023-10-19T02:49:19;11.90;;;8.10;;
80127;SDS011;69440;52.118;5.408;2023-10-19T02:51:48;11.20;;;7.78;;
80127;SDS011;69440;52.118;5.408;2023-10-19T02:54:16;11.15;;;7.22;;
80127;SDS011;69440;52.118;5.408;2023-10-19T02:56:48;10.73;;;7.38;;
80127;SDS011;69440;52.118;5.408;2023-10-19T02:59:18;11.55;;;6.80;;
80127;SDS011;69440;52.118;5.408;2023-10-19T03:04:18;9.80;;;6.05;;
80127;SDS011;69440;52.118;5.408;2023-10-19T03:06:45;10.13;;;6.50;;
80127;SDS011;69440;52.118;5.408;2023-10-19T03:09:11;10.40;;;6.65;;
80127;SDS011;69440;52.118;5.408;2023-10-19T03:11:46;10.15;;;6.53;;
80127;SDS011;69440;52.118;5.408;2023-10-19T03:14:12;10.25;;;6.38;;
80127;SDS011;69440;52.118;5.408;2023-10-19T03:16:40;12.77;;;7.50;;
80127;SDS011;69440;52.118;5.408;2023-10-19T03:19:09;10.25;;;7.10;;
80127;SDS011;69440;52.118;5.408;2023-10-19T03:21:36;11.38;;;6.97;;
80127;SDS011;69440;52.118;5.408;2023-10-19T03:24:15;10.93;;;7.32;;
80127;SDS011;69440;52.118;5.408;2023-10-19T03:26:50;10.93;;;7.70;;
80127;SDS011;69440;52.118;5.408;2023-10-19T03:29:17;11.95;;;6.93;;
80127;SDS011;69440;52.118;5.408;2023-10-19T03:31:57;12.20;;;7.00;;
80127;SDS011;69440;52.118;5.408;2023-10-19T03:34:28;10.13;;;6.65;;
80127;SDS011;69440;52.118;5.408;2023-10-19T03:36:59;11.45;;;6.72;;
80127;SDS011;69440;52.118;5.408;2023-10-19T03:39:33;11.60;;;6.97;;
80127;SDS011;69440;52.118;5.408;2023-10-19T03:42:04;10.05;;;6.78;;
80127;SDS011;69440;52.118;5.408;2023-10-19T03:44:40;8.88;;;5.93;;
80127;SDS011;69440;52.118;5.408;2023-10-19T03:47:09;8.10;;;5.88;;
80127;SDS011;69440;52.118;5.408;2023-10-19T03:49:40;9.60;;;6.03;;
80127;SDS011;69440;52.118;5.408;2023-10-19T03:52:07;10.27;;;6.00;;
80127;SDS011;69440;52.118;5.408;2023-10-19T03:54:35;10.77;;;5.70;;
80127;SDS011;69440;52.118;5.408;2023-10-19T03:57:08;8.60;;;5.43;;
80127;SDS011;69440;52.118;5.408;2023-10-19T03:59:39;8.18;;;5.90;;
80127;SDS011;69440;52.118;5.408;2023-10-19T04:02:09;8.65;;;5.78;;
80127;SDS011;69440;52.118;5.408;2023-10-19T04:04:39;9.50;;;5.57;;
80127;SDS011;69440;52.118;5.408;2023-10-19T04:07:10;7.57;;;5.35;;
80127;SDS011;69440;52.118;5.408;2023-10-19T04:09:42;9.02;;;5.85;;
80127;SDS011;69440;52.118;5.408;2023-10-19T04:12:39;9.32;;;5.38;;
80127;SDS011;69440;52.118;5.408;2023-10-19T04:15:09;8.68;;;4.65;;
80127;SDS011;69440;52.118;5.408;2023-10-19T04:17:41;8.68;;;4.72;;
80127;SDS011;69440;52.118;5.408;2023-10-19T04:20:09;9.18;;;4.38;;
80127;SDS011;69440;52.118;5.408;2023-10-19T04:22:56;6.03;;;3.95;;
80127;SDS011;69440;52.118;5.408;2023-10-19T04:25:25;8.32;;;4.45;;
80127;SDS011;69440;52.118;5.408;2023-10-19T04:27:52;7.55;;;4.03;;
80127;SDS011;69440;52.118;5.408;2023-10-19T04:30:19;6.85;;;3.97;;
80127;SDS011;69440;52.118;5.408;2023-10-19T04:32:49;5.60;;;3.72;;
80127;SDS011;69440;52.118;5.408;2023-10-19T04:35:19;8.32;;;2.97;;
80127;SDS011;69440;52.118;5.408;2023-10-19T04:37:52;6.80;;;2.95;;
80127;SDS011;69440;52.118;5.408;2023-10-19T04:40:20;6.38;;;2.95;;
80127;SDS011;69440;52.118;5.408;2023-10-19T04:42:47;6.82;;;3.08;;
80127;SDS011;69440;52.118;5.408;2023-10-19T04:45:15;4.63;;;2.45;;
80127;SDS011;69440;52.118;5.408;2023-10-19T04:47:42;5.97;;;2.97;;
80127;SDS011;69440;52.118;5.408;2023-10-19T04:50:10;6.38;;;2.75;;
80127;SDS011;69440;52.118;5.408;2023-10-19T04:52:37;4.25;;;2.40;;
80127;SDS011;69440;52.118;5.408;2023-10-19T04:55:05;4.40;;;2.10;;
80127;SDS011;69440;52.118;5.408;2023-10-19T04:57:32;4.82;;;2.20;;
80127;SDS011;69440;52.118;5.408;2023-10-19T04:59:59;3.28;;;2.05;;
80127;SDS011;69440;52.118;5.408;2023-10-19T05:02:26;3.17;;;1.77;;
80127;SDS011;69440;52.118;5.408;2023-10-19T05:04:52;5.55;;;1.90;;
80127;SDS011;69440;52.118;5.408;2023-10-19T05:07:19;5.20;;;1.52;;
80127;SDS011;69440;52.118;5.408;2023-10-19T05:09:46;4.65;;;1.80;;
80127;SDS011;69440;52.118;5.408;2023-10-19T05:12:13;6.07;;;2.00;;
80127;SDS011;69440;52.118;5.408;2023-10-19T05:14:41;3.60;;;1.52;;
80127;SDS011;69440;52.118;5.408;2023-10-19T05:17:08;5.13;;;1.67;;
80127;SDS011;69440;52.118;5.408;2023-10-19T05:19:36;6.50;;;1.40;;
80127;SDS011;69440;52.118;5.408;2023-10-19T05:22:07;3.60;;;1.40;;
80127;SDS011;69440;52.118;5.408;2023-10-19T05:24:35;6.80;;;1.45;;
80127;SDS011;69440;52.118;5.408;2023-10-19T05:27:02;2.85;;;1.25;;
80127;SDS011;69440;52.118;5.408;2023-10-19T05:29:31;2.92;;;1.10;;
80127;SDS011;69440;52.118;5.408;2023-10-19T05:31:59;4.22;;;1.02;;
80127;SDS011;69440;52.118;5.408;2023-10-19T05:34:27;5.72;;;1.52;;
80127;SDS011;69440;52.118;5.408;2023-10-19T05:36:56;7.22;;;1.50;;
80127;SDS011;69440;52.118;5.408;2023-10-19T05:39:25;6.45;;;1.38;;
80127;SDS011;69440;52.118;5.408;2023-10-19T05:41:57;3.80;;;1.35;;
80127;SDS011;69440;52.118;5.408;2023-10-19T05:46:53;3.97;;;1.33;;
80127;SDS011;69440;52.118;5.408;2023-10-19T05:49:21;5.85;;;1.10;;
80127;SDS011;69440;52.118;5.408;2023-10-19T05:51:47;2.10;;;1.05;;
80127;SDS011;69440;52.118;5.408;2023-10-19T05:54:14;5.50;;;1.48;;
80127;SDS011;69440;52.118;5.408;2023-10-19T05:56:40;4.68;;;1.25;;
80127;SDS011;69440;52.118;5.408;2023-10-19T05:59:07;4.75;;;1.20;;
80127;SDS011;69440;52.118;5.408;2023-10-19T06:01:36;2.95;;;1.08;;
80127;SDS011;69440;52.118;5.408;2023-10-19T06:04:03;2.38;;;1.08;;
80127;SDS011;69440;52.118;5.408;2023-10-19T06:06:30;4.53;;;1.20;;
80127;SDS011;69440;52.118;5.408;2023-10-19T06:08:56;2.80;;;1.10;;
80127;SDS011;69440;52.118;5.408;2023-10-19T06:11:23;3.38;;;1.10;;
80127;SDS011;69440;52.118;5.408;2023-10-19T06:13:49;3.88;;;1.35;;
80127;SDS011;69440;52.118;5.408;2023-10-19T06:16:16;3.65;;;1.23;;
80127;SDS011;69440;52.118;5.408;2023-10-19T06:18:43;4.43;;;1.02;;
80127;SDS011;69440;52.118;5.408;2023-10-19T06:21:10;4.22;;;1.40;;
80127;SDS011;69440;52.118;5.408;2023-10-19T06:23:38;3.85;;;1.70;;
80127;SDS011;69440;52.118;5.408;2023-10-19T06:26:08;4.45;;;1.50;;
80127;SDS011;69440;52.118;5.408;2023-10-19T06:28:38;3.55;;;1.67;;
80127;SDS011;69440;52.118;5.408;2023-10-19T06:31:06;4.00;;;1.50;;
80127;SDS011;69440;52.118;5.408;2023-10-19T06:33:33;5.75;;;1.45;;
80127;SDS011;69440;52.118;5.408;2023-10-19T06:35:59;4.90;;;1.35;;
80127;SDS011;69440;52.118;5.408;2023-10-19T06:38:29;3.08;;;1.40;;
80127;SDS011;69440;52.118;5.408;2023-10-19T06:40:57;3.58;;;1.50;;
80127;SDS011;69440;52.118;5.408;2023-10-19T06:43:25;4.70;;;1.58;;
80127;SDS011;69440;52.118;5.408;2023-10-19T06:45:58;4.28;;;1.98;;
80127;SDS011;69440;52.118;5.408;2023-10-19T06:48:26;2.67;;;1.40;;
80127;SDS011;69440;52.118;5.408;2023-10-19T06:50:53;6.03;;;1.70;;
80127;SDS011;69440;52.118;5.408;2023-10-19T06:53:19;4.85;;;1.70;;
80127;SDS011;69440;52.118;5.408;2023-10-19T06:55:46;3.72;;;2.13;;
80127;SDS011;69440;52.118;5.408;2023-10-19T06:58:12;5.35;;;1.60;;
80127;SDS011;69440;52.118;5.408;2023-10-19T07:00:40;4.80;;;1.60;;
80127;SDS011;69440;52.118;5.408;2023-10-19T07:03:13;2.95;;;1.73;;
80127;SDS011;69440;52.118;5.408;2023-10-19T07:05:40;3.10;;;1.45;;
80127;SDS011;69440;52.118;5.408;2023-10-19T07:08:06;5.00;;;1.80;;
80127;SDS011;69440;52.118;5.408;2023-10-19T07:10:33;5.82;;;1.88;;
80127;SDS011;69440;52.118;5.408;2023-10-19T07:13:01;4.53;;;1.95;;
80127;SDS011;69440;52.118;5.408;2023-10-19T07:15:28;3.45;;;2.08;;
80127;SDS011;69440;52.118;5.408;2023-10-19T07:17:56;5.82;;;2.03;;
80127;SDS011;69440;52.118;5.408;2023-10-19T07:20:24;4.72;;;2.17;;
80127;SDS011;69440;52.118;5.408;2023-10-19T07:22:53;4.18;;;1.75;;
80127;SDS011;69440;52.118;5.408;2023-10-19T07:25:21;4.03;;;1.80;;
80127;SDS011;69440;52.118;5.408;2023-10-19T07:27:48;5.68;;;2.30;;
80127;SDS011;69440;52.118;5.408;2023-10-19T07:30:17;4.25;;;1.92;;
80127;SDS011;69440;52.118;5.408;2023-10-19T07:32:50;5.78;;;2.10;;
80127;SDS011;69440;52.118;5.408;2023-10-19T07:35:21;6.03;;;2.05;;
80127;SDS011;69440;52.118;5.408;2023-10-19T07:37:48;3.13;;;1.88;;
80127;SDS011;69440;52.118;5.408;2023-10-19T07:40:16;5.95;;;1.80;;
80127;SDS011;69440;52.118;5.408;2023-10-19T07:42:44;4.30;;;2.05;;
80127;SDS011;69440;52.118;5.408;2023-10-19T07:45:11;9.73;;;2.35;;
80127;SDS011;69440;52.118;5.408;2023-10-19T07:47:38;5.57;;;2.08;;
80127;SDS011;69440;52.118;5.408;2023-10-19T07:50:07;6.50;;;1.92;;
80127;SDS011;69440;52.118;5.408;2023-10-19T07:52:47;4.75;;;1.88;;
80127;SDS011;69440;52.118;5.408;2023-10-19T07:55:16;5.90;;;1.55;;
80127;SDS011;69440;52.118;5.408;2023-10-19T07:57:43;4.30;;;2.00;;
80127;SDS011;69440;52.118;5.408;2023-10-19T08:00:11;5.10;;;1.50;;
80127;SDS011;69440;52.118;5.408;2023-10-19T08:02:41;5.13;;;1.70;;
80127;SDS011;69440;52.118;5.408;2023-10-19T08:05:08;7.65;;;2.20;;
80127;SDS011;69440;52.118;5.408;2023-10-19T08:07:40;3.33;;;1.70;;
80127;SDS011;69440;52.118;5.408;2023-10-19T08:10:09;4.43;;;1.52;;
80127;SDS011;69440;52.118;5.408;2023-10-19T08:12:38;6.90;;;1.63;;
80127;SDS011;69440;52.118;5.408;2023-10-19T08:15:10;6.78;;;1.50;;
80127;SDS011;69440;52.118;5.408;2023-10-19T08:17:39;10.50;;;1.70;;
80127;SDS011;69440;52.118;5.408;2023-10-19T08:20:07;5.82;;;1.80;;
80127;SDS011;69440;52.118;5.408;2023-10-19T08:22:36;5.63;;;1.88;;
80127;SDS011;69440;52.118;5.408;2023-10-19T08:25:03;3.65;;;1.42;;
80127;SDS011;69440;52.118;5.408;2023-10-19T08:27:31;7.45;;;1.80;;
80127;SDS011;69440;52.118;5.408;2023-10-19T08:29:59;5.55;;;1.77;;
80127;SDS011;69440;52.118;5.408;2023-10-19T08:32:25;6.30;;;1.75;;
80127;SDS011;69440;52.118;5.408;2023-10-19T08:34:53;6.07;;;1.65;;
80127;SDS011;69440;52.118;5.408;2023-10-19T08:37:20;4.25;;;1.55;;
80127;SDS011;69440;52.118;5.408;2023-10-19T08:39:46;4.57;;;1.50;;
80127;SDS011;69440;52.118;5.408;2023-10-19T08:42:13;9.38;;;2.00;;
80127;SDS011;69440;52.118;5.408;2023-10-19T08:44:39;6.78;;;1.70;;
80127;SDS011;69440;52.118;5.408;2023-10-19T08:47:07;8.55;;;1.77;;
80127;SDS011;69440;52.118;5.408;2023-10-19T08:49:34;5.78;;;1.90;;
80127;SDS011;69440;52.118;5.408;2023-10-19T08:52:03;5.75;;;1.80;;
80127;SDS011;69440;52.118;5.408;2023-10-19T08:54:32;6.78;;;2.42;;
80127;SDS011;69440;52.118;5.408;2023-10-19T08:57:00;10.43;;;2.15;;
80127;SDS011;69440;52.118;5.408;2023-10-19T08:59:26;4.07;;;1.40;;
80127;SDS011;69440;52.118;5.408;2023-10-19T09:02:03;5.40;;;1.83;;
80127;SDS011;69440;52.118;5.408;2023-10-19T09:04:29;8.65;;;2.38;;
80127;SDS011;69440;52.118;5.408;2023-10-19T09:06:57;7.15;;;1.77;;
80127;SDS011;69440;52.118;5.408;2023-10-19T09:09:23;10.27;;;2.65;;
80127;SDS011;69440;52.118;5.408;2023-10-19T09:11:51;7.30;;;2.17;;
80127;SDS011;69440;52.118;5.408;2023-10-19T09:14:31;7.22;;;2.47;;
80127;SDS011;69440;52.118;5.408;2023-10-19T09:17:02;5.50;;;1.67;;
80127;SDS011;69440;52.118;5.408;2023-10-19T09:22:09;5.18;;;2.20;;
80127;SDS011;69440;52.118;5.408;2023-10-19T09:24:45;5.30;;;2.28;;
80127;SDS011;69440;52.118;5.408;2023-10-19T09:27:12;5.95;;;2.28;;
80127;SDS011;69440;52.118;5.408;2023-10-19T09:29:43;7.68;;;1.58;;
80127;SDS011;69440;52.118;5.408;2023-10-19T09:32:10;4.38;;;1.83;;
80127;SDS011;69440;52.118;5.408;2023-10-19T09:34:40;10.32;;;1.80;;
80127;SDS011;69440;52.118;5.408;2023-10-19T09:37:10;7.40;;;2.30;;
80127;SDS011;69440;52.118;5.408;2023-10-19T09:39:37;5.00;;;1.50;;
80127;SDS011;69440;52.118;5.408;2023-10-19T09:42:08;6.32;;;1.98;;
80127;SDS011;69440;52.118;5.408;2023-10-19T09:44:40;4.65;;;1.75;;
80127;SDS011;69440;52.118;5.408;2023-10-19T09:47:13;6.47;;;2.05;;
80127;SDS011;69440;52.118;5.408;2023-10-19T09:49:50;9.95;;;2.28;;
80127;SDS011;69440;52.118;5.408;2023-10-19T09:52:17;6.60;;;1.80;;
80127;SDS011;69440;52.118;5.408;2023-10-19T09:54:52;8.70;;;2.35;;
80127;SDS011;69440;52.118;5.408;2023-10-19T10:00:17;9.98;;;2.13;;
80127;SDS011;69440;52.118;5.408;2023-10-19T10:02:50;5.30;;;1.88;;
80127;SDS011;69440;52.118;5.408;2023-10-19T10:10:48;6.75;;;2.25;;
80127;SDS011;69440;52.118;5.408;2023-10-19T10:15:53;8.20;;;2.60;;
80127;SDS011;69440;52.118;5.408;2023-10-19T10:18:24;4.88;;;1.90;;
80127;SDS011;69440;52.118;5.408;2023-10-19T10:23:43;11.15;;;2.20;;
80127;SDS011;69440;52.118;5.408;2023-10-19T10:26:11;6.10;;;2.20;;
80127;SDS011;69440;52.118;5.408;2023-10-19T10:28:40;6.40;;;1.90;;
80127;SDS011;69440;52.118;5.408;2023-10-19T10:31:12;6.93;;;2.30;;
80127;SDS011;69440;52.118;5.408;2023-10-19T10:36:16;7.15;;;2.50;;
80127;SDS011;69440;52.118;5.408;2023-10-19T10:38:48;6.82;;;2.00;;
80127;SDS011;69440;52.118;5.408;2023-10-19T10:41:19;8.48;;;2.30;;
80127;SDS011;69440;52.118;5.408;2023-10-19T10:43:55;8.63;;;2.72;;
80127;SDS011;69440;52.118;5.408;2023-10-19T10:46:23;7.05;;;2.38;;
80127;SDS011;69440;52.118;5.408;2023-10-19T10:48:51;7.50;;;2.92;;
80127;SDS011;69440;52.118;5.408;2023-10-19T10:51:18;7.05;;;2.30;;
80127;SDS011;69440;52.118;5.408;2023-10-19T10:53:47;8.60;;;2.45;;
80127;SDS011;69440;52.118;5.408;2023-10-19T10:56:21;7.30;;;2.00;;
80127;SDS011;69440;52.118;5.408;2023-10-19T11:01:29;8.18;;;2.30;;
80127;SDS011;69440;52.118;5.408;2023-10-19T11:04:08;10.02;;;2.28;;
80127;SDS011;69440;52.118;5.408;2023-10-19T11:06:50;8.57;;;2.25;;
80127;SDS011;69440;52.118;5.408;2023-10-19T11:09:17;6.45;;;2.10;;
80127;SDS011;69440;52.118;5.408;2023-10-19T11:11:48;4.70;;;1.95;;
80127;SDS011;69440;52.118;5.408;2023-10-19T11:14:18;4.60;;;3.03;;
80127;SDS011;69440;52.118;5.408;2023-10-19T11:16:45;9.02;;;2.22;;
80127;SDS011;69440;52.118;5.408;2023-10-19T11:19:12;7.15;;;2.05;;
80127;SDS011;69440;52.118;5.408;2023-10-19T11:21:38;9.30;;;2.42;;
80127;SDS011;69440;52.118;5.408;2023-10-19T11:24:25;9.00;;;2.00;;
80127;SDS011;69440;52.118;5.408;2023-10-19T11:26:52;11.23;;;2.10;;
80127;SDS011;69440;52.118;5.408;2023-10-19T11:29:19;6.88;;;1.88;;
80127;SDS011;69440;52.118;5.408;2023-10-19T11:31:56;5.30;;;1.90;;
80127;SDS011;69440;52.118;5.408;2023-10-19T11:34:24;7.80;;;1.88;;
80127;SDS011;69440;52.118;5.408;2023-10-19T11:36:54;10.25;;;1.73;;
80127;SDS011;69440;52.118;5.408;2023-10-19T11:41:52;8.40;;;2.10;;
80127;SDS011;69440;52.118;5.408;2023-10-19T11:44:19;6.00;;;1.98;;
80127;SDS011;69440;52.118;5.408;2023-10-19T11:46:46;8.38;;;1.67;;
80127;SDS011;69440;52.118;5.408;2023-10-19T11:49:12;7.07;;;1.88;;
80127;SDS011;69440;52.118;5.408;2023-10-19T11:51:39;8.90;;;1.52;;
80127;SDS011;69440;52.118;5.408;2023-10-19T11:54:05;6.90;;;1.25;;
80127;SDS011;69440;52.118;5.408;2023-10-19T11:56:32;7.40;;;1.67;;
80127;SDS011;69440;52.118;5.408;2023-10-19T11:58:58;8.95;;;1.70;;
80127;SDS011;69440;52.118;5.408;2023-10-19T12:01:25;6.88;;;1.50;;
80127;SDS011;69440;52.118;5.408;2023-10-19T12:03:53;9.40;;;1.80;;
80127;SDS011;69440;52.118;5.408;2023-10-19T12:06:19;8.98;;;1.80;;
80127;SDS011;69440;52.118;5.408;2023-10-19T12:08:46;7.32;;;1.50;;
80127;SDS011;69440;52.118;5.408;2023-10-19T12:11:13;6.97;;;2.00;;
80127;SDS011;69440;52.118;5.408;2023-10-19T12:13:50;8.43;;;2.20;;
80127;SDS011;69440;52.118;5.408;2023-10-19T12:16:17;8.68;;;1.50;;
80127;SDS011;69440;52.118;5.408;2023-10-19T12:18:43;7.57;;;1.70;;
80127;SDS011;69440;52.118;5.408;2023-10-19T12:21:10;10.15;;;1.73;;
80127;SDS011;69440;52.118;5.408;2023-10-19T12:23:40;7.43;;;1.38;;
80127;SDS011;69440;52.118;5.408;2023-10-19T12:26:09;7.20;;;1.77;;
80127;SDS011;69440;52.118;5.408;2023-10-19T12:28:42;8.45;;;1.85;;
80127;SDS011;69440;52.118;5.408;2023-10-19T12:31:12;7.60;;;1.48;;
80127;SDS011;69440;52.118;5.408;2023-10-19T12:33:39;7.30;;;1.50;;
80127;SDS011;69440;52.118;5.408;2023-10-19T12:36:07;9.35;;;1.45;;
80127;SDS011;69440;52.118;5.408;2023-10-19T12:38:53;11.60;;;1.55;;
80127;SDS011;69440;52.118;5.408;2023-10-19T12:41:23;6.72;;;1.40;;
80127;SDS011;69440;52.118;5.408;2023-10-19T12:43:50;8.63;;;2.05;;
80127;SDS011;69440;52.118;5.408;2023-10-19T12:46:35;7.75;;;3.03;;
80127;SDS011;69440;52.118;5.408;2023-10-19T12:49:04;12.07;;;1.92;;
80127;SDS011;69440;52.118;5.408;2023-10-19T12:51:34;11.32;;;2.47;;
80127;SDS011;69440;52.118;5.408;2023-10-19T12:54:01;6.65;;;1.42;;
80127;SDS011;69440;52.118;5.408;2023-10-19T12:56:29;8.05;;;1.90;;
80127;SDS011;69440;52.118;5.408;2023-10-19T12:58:59;9.32;;;1.83;;
80127;SDS011;69440;52.118;5.408;2023-10-19T13:01:25;8.90;;;1.85;;
80127;SDS011;69440;52.118;5.408;2023-10-19T13:03:54;8.07;;;1.95;;
80127;SDS011;69440;52.118;5.408;2023-10-19T13:06:21;6.78;;;1.75;;
80127;SDS011;69440;52.118;5.408;2023-10-19T13:08:50;8.18;;;1.88;;
80127;SDS011;69440;52.118;5.408;2023-10-19T13:11:16;7.45;;;1.83;;
80127;SDS011;69440;52.118;5.408;2023-10-19T13:13:45;6.45;;;1.60;;
80127;SDS011;69440;52.118;5.408;2023-10-19T13:16:13;6.22;;;1.60;;
80127;SDS011;69440;52.118;5.408;2023-10-19T13:18:41;4.95;;;1.80;;
80127;SDS011;69440;52.118;5.408;2023-10-19T13:21:08;9.77;;;1.95;;
80127;SDS011;69440;52.118;5.408;2023-10-19T13:23:43;9.38;;;1.80;;
80127;SDS011;69440;52.118;5.408;2023-10-19T13:26:10;8.18;;;1.90;;
80127;SDS011;69440;52.118;5.408;2023-10-19T13:28:43;7.05;;;1.90;;
80127;SDS011;69440;52.118;5.408;2023-10-19T13:31:10;9.70;;;2.25;;
80127;SDS011;69440;52.118;5.408;2023-10-19T13:33:37;8.02;;;1.75;;
80127;SDS011;69440;52.118;5.408;2023-10-19T13:36:04;7.78;;;2.20;;
80127;SDS011;69440;52.118;5.408;2023-10-19T13:38:32;5.88;;;1.77;;
80127;SDS011;69440;52.118;5.408;2023-10-19T13:40:59;5.78;;;1.85;;
80127;SDS011;69440;52.118;5.408;2023-10-19T13:43:29;11.43;;;2.13;;
80127;SDS011;69440;52.118;5.408;2023-10-19T13:45:59;10.02;;;2.92;;
80127;SDS011;69440;52.118;5.408;2023-10-19T13:48:27;8.98;;;2.17;;
80127;SDS011;69440;52.118;5.408;2023-10-19T13:50:54;9.90;;;3.17;;
80127;SDS011;69440;52.118;5.408;2023-10-19T13:53:26;7.57;;;2.17;;
80127;SDS011;69440;52.118;5.408;2023-10-19T13:55:53;9.85;;;2.40;;
80127;SDS011;69440;52.118;5.408;2023-10-19T13:58:19;9.63;;;2.20;;
80127;SDS011;69440;52.118;5.408;2023-10-19T14:00:47;9.95;;;2.42;;
80127;SDS011;69440;52.118;5.408;2023-10-19T14:03:15;7.03;;;1.90;;
80127;SDS011;69440;52.118;5.408;2023-10-19T14:05:43;9.73;;;2.17;;
80127;SDS011;69440;52.118;5.408;2023-10-19T14:08:15;6.22;;;2.55;;
80127;SDS011;69440;52.118;5.408;2023-10-19T14:10:43;7.97;;;2.17;;
80127;SDS011;69440;52.118;5.408;2023-10-19T14:13:10;10.32;;;2.00;;
80127;SDS011;69440;52.118;5.408;2023-10-19T14:15:46;10.07;;;2.45;;
80127;SDS011;69440;52.118;5.408;2023-10-19T14:18:12;10.50;;;2.45;;
80127;SDS011;69440;52.118;5.408;2023-10-19T14:20:39;7.38;;;1.90;;
80127;SDS011;69440;52.118;5.408;2023-10-19T14:23:07;8.38;;;2.80;;
80127;SDS011;69440;52.118;5.408;2023-10-19T14:25:37;6.95;;;2.00;;
80127;SDS011;69440;52.118;5.408;2023-10-19T14:28:08;8.85;;;2.17;;
80127;SDS011;69440;52.118;5.408;2023-10-19T14:30:36;7.65;;;2.60;;
80127;SDS011;69440;52.118;5.408;2023-10-19T14:33:02;9.52;;;1.90;;
80127;SDS011;69440;52.118;5.408;2023-10-19T14:35:29;9.85;;;2.60;;
80127;SDS011;69440;52.118;5.408;2023-10-19T14:37:56;11.77;;;3.03;;
80127;SDS011;69440;52.118;5.408;2023-10-19T14:40:26;11.15;;;2.00;;
80127;SDS011;69440;52.118;5.408;2023-10-19T14:42:54;9.48;;;2.33;;
80127;SDS011;69440;52.118;5.408;2023-10-19T14:45:26;7.85;;;2.28;;
80127;SDS011;69440;52.118;5.408;2023-10-19T14:47:56;9.45;;;2.13;;
80127;SDS011;69440;52.118;5.408;2023-10-19T14:50:28;8.48;;;2.35;;
80127;SDS011;69440;52.118;5.408;2023-10-19T14:52:55;7.07;;;2.60;;
80127;SDS011;69440;52.118;5.408;2023-10-19T14:55:22;7.32;;;2.17;;
80127;SDS011;69440;52.118;5.408;2023-10-19T14:57:51;8.57;;;2.78;;
80127;SDS011;69440;52.118;5.408;2023-10-19T15:00:20;8.60;;;2.42;;
80127;SDS011;69440;52.118;5.408;2023-10-19T15:02:49;11.23;;;2.67;;
80127;SDS011;69440;52.118;5.408;2023-10-19T15:05:17;10.60;;;2.80;;
80127;SDS011;69440;52.118;5.408;2023-10-19T15:07:45;11.13;;;3.10;;
80127;SDS011;69440;52.118;5.408;2023-10-19T15:10:24;7.72;;;2.72;;
80127;SDS011;69440;52.118;5.408;2023-10-19T15:12:52;10.45;;;3.60;;
80127;SDS011;69440;52.118;5.408;2023-10-19T15:15:19;11.30;;;2.63;;
80127;SDS011;69440;52.118;5.408;2023-10-19T15:17:47;11.77;;;2.45;;
80127;SDS011;69440;52.118;5.408;2023-10-19T15:20:14;8.13;;;2.40;;
80127;SDS011;69440;52.118;5.408;2023-10-19T15:22:41;7.90;;;2.13;;
80127;SDS011;69440;52.118;5.408;2023-10-19T15:25:11;6.35;;;2.30;;
80127;SDS011;69440;52.118;5.408;2023-10-19T15:27:40;9.68;;;2.40;;